HTMW

Mwanza Airport

Mwanza, Tanzania
METAR HTMW 211300Z 33009KT 9999 FEW027 FEW028CB 26/19 Q1013 NOSIG
Observed Flight Rules
Apr-21 @ 13:00 UTC (3 hours ago) Visual Flight Rules
Wind Visibility Clouds
330° at 9 knots 10,000+ meters
  • Few at 2,700' AGL
  • Few at 2,800' AGL
Temperatures Readings
Current 26°C / 79°F
Dewpoint 19°C / 66°F
Humidity 65%
Altimeter 29.91" Hg
Pressure 1013 hPa
Elevation 1140
METAR HTMW 211300Z 33009KT 9999 FEW027 FEW028CB 26/19 Q1013 NOSIG
Observed Flight Rules
Apr-21 @ 13:00 UTC
(3 hours ago)
VFR
Wind Visibility
330° at 9 knots 10,000+ meters
Clouds
  • Few at 2,700' AGL
  • Few at 2,800' AGL
Temperature Dewpoint
26°C / 79°F 19°C / 66°F
Humidity Altimeter Pressure
65% 29.91" Hg 1013 hPa